sensor_id;sensor_type;location;lat;lon;timestamp;temperature;humidity
53748;DHT22;39655;53.210;5.768;2023-02-13T00:01:22;6.90;80.30
53748;DHT22;39655;53.210;5.768;2023-02-13T00:03:48;6.90;80.40
53748;DHT22;39655;53.210;5.768;2023-02-13T00:06:13;6.90;80.20
53748;DHT22;39655;53.210;5.768;2023-02-13T00:08:39;6.90;79.20
53748;DHT22;39655;53.210;5.768;2023-02-13T00:11:05;6.90;79.20
53748;DHT22;39655;53.210;5.768;2023-02-13T00:13:32;6.90;79.10
53748;DHT22;39655;53.210;5.768;2023-02-13T00:16:00;6.90;79.50
53748;DHT22;39655;53.210;5.768;2023-02-13T00:18:27;6.90;79.70
53748;DHT22;39655;53.210;5.768;2023-02-13T00:21:04;6.90;79.90
53748;DHT22;39655;53.210;5.768;2023-02-13T00:23:31;6.90;79.70
53748;DHT22;39655;53.210;5.768;2023-02-13T00:25:58;6.90;79.80
53748;DHT22;39655;53.210;5.768;2023-02-13T00:28:24;6.90;79.80
53748;DHT22;39655;53.210;5.768;2023-02-13T00:30:50;6.90;79.60
53748;DHT22;39655;53.210;5.768;2023-02-13T00:33:16;6.90;79.80
53748;DHT22;39655;53.210;5.768;2023-02-13T00:35:42;6.80;79.80
53748;DHT22;39655;53.210;5.768;2023-02-13T00:38:08;6.80;80.10
53748;DHT22;39655;53.210;5.768;2023-02-13T00:40:34;6.80;80.50
53748;DHT22;39655;53.210;5.768;2023-02-13T00:43:00;6.80;80.70
53748;DHT22;39655;53.210;5.768;2023-02-13T00:45:25;6.90;80.80
53748;DHT22;39655;53.210;5.768;2023-02-13T00:47:51;6.80;80.60
53748;DHT22;39655;53.210;5.768;2023-02-13T00:50:17;6.80;80.90
53748;DHT22;39655;53.210;5.768;2023-02-13T00:52:43;6.80;81.40
53748;DHT22;39655;53.210;5.768;2023-02-13T00:55:08;6.80;81.40
53748;DHT22;39655;53.210;5.768;2023-02-13T00:57:34;6.80;81.40
53748;DHT22;39655;53.210;5.768;2023-02-13T00:59:59;6.80;81.50
53748;DHT22;39655;53.210;5.768;2023-02-13T01:02:25;6.80;81.50
53748;DHT22;39655;53.210;5.768;2023-02-13T01:04:51;6.70;81.50
53748;DHT22;39655;53.210;5.768;2023-02-13T01:07:17;6.80;81.80
53748;DHT22;39655;53.210;5.768;2023-02-13T01:09:43;6.70;82.20
53748;DHT22;39655;53.210;5.768;2023-02-13T01:12:09;6.70;82.10
53748;DHT22;39655;53.210;5.768;2023-02-13T01:14:34;6.70;79.90
53748;DHT22;39655;53.210;5.768;2023-02-13T01:17:00;6.70;79.90
53748;DHT22;39655;53.210;5.768;2023-02-13T01:19:26;6.70;80.00
53748;DHT22;39655;53.210;5.768;2023-02-13T01:21:51;6.80;80.40
53748;DHT22;39655;53.210;5.768;2023-02-13T01:24:17;6.80;80.90
53748;DHT22;39655;53.210;5.768;2023-02-13T01:26:43;6.80;80.90
53748;DHT22;39655;53.210;5.768;2023-02-13T01:29:11;6.80;81.00
53748;DHT22;39655;53.210;5.768;2023-02-13T01:31:37;6.80;81.20
53748;DHT22;39655;53.210;5.768;2023-02-13T01:34:02;6.80;81.50
53748;DHT22;39655;53.210;5.768;2023-02-13T01:36:28;6.80;81.50
53748;DHT22;39655;53.210;5.768;2023-02-13T01:38:55;6.80;81.70
53748;DHT22;39655;53.210;5.768;2023-02-13T01:41:22;6.70;82.00
53748;DHT22;39655;53.210;5.768;2023-02-13T01:43:57;6.70;81.90
53748;DHT22;39655;53.210;5.768;2023-02-13T01:49:03;6.70;82.30
53748;DHT22;39655;53.210;5.768;2023-02-13T01:51:32;6.70;82.40
53748;DHT22;39655;53.210;5.768;2023-02-13T01:57:01;6.70;82.90
53748;DHT22;39655;53.210;5.768;2023-02-13T01:59:34;6.70;83.10
53748;DHT22;39655;53.210;5.768;2023-02-13T02:02:01;6.70;83.10
53748;DHT22;39655;53.210;5.768;2023-02-13T02:04:35;6.70;83.20
53748;DHT22;39655;53.210;5.768;2023-02-13T02:07:08;6.60;83.30
53748;DHT22;39655;53.210;5.768;2023-02-13T02:09:37;6.60;83.10
53748;DHT22;39655;53.210;5.768;2023-02-13T02:12:22;6.60;83.30
53748;DHT22;39655;53.210;5.768;2023-02-13T02:14:49;6.60;83.30
53748;DHT22;39655;53.210;5.768;2023-02-13T02:17:15;6.60;83.30
53748;DHT22;39655;53.210;5.768;2023-02-13T02:25:49;6.60;83.10
53748;DHT22;39655;53.210;5.768;2023-02-13T02:33:41;6.60;83.10
53748;DHT22;39655;53.210;5.768;2023-02-13T02:39:37;6.60;83.50
53748;DHT22;39655;53.210;5.768;2023-02-13T02:45:04;6.60;83.90
53748;DHT22;39655;53.210;5.768;2023-02-13T02:47:53;6.60;84.00
53748;DHT22;39655;53.210;5.768;2023-02-13T02:51:07;6.50;84.20
53748;DHT22;39655;53.210;5.768;2023-02-13T02:53:41;6.50;84.40
53748;DHT22;39655;53.210;5.768;2023-02-13T02:56:19;6.50;84.60
53748;DHT22;39655;53.210;5.768;2023-02-13T02:58:46;6.50;84.70
53748;DHT22;39655;53.210;5.768;2023-02-13T03:01:33;6.50;84.80
53748;DHT22;39655;53.210;5.768;2023-02-13T03:04:29;6.50;84.80
53748;DHT22;39655;53.210;5.768;2023-02-13T03:07:16;6.50;84.80
53748;DHT22;39655;53.210;5.768;2023-02-13T03:09:50;6.50;84.80
53748;DHT22;39655;53.210;5.768;2023-02-13T03:12:39;6.50;84.70
53748;DHT22;39655;53.210;5.768;2023-02-13T03:15:26;6.60;84.80
53748;DHT22;39655;53.210;5.768;2023-02-13T03:17:52;6.60;84.70
53748;DHT22;39655;53.210;5.768;2023-02-13T03:24:06;6.50;84.70
53748;DHT22;39655;53.210;5.768;2023-02-13T03:29:24;6.50;84.60
53748;DHT22;39655;53.210;5.768;2023-02-13T03:32:42;6.50;84.50
53748;DHT22;39655;53.210;5.768;2023-02-13T03:38:21;6.50;84.10
53748;DHT22;39655;53.210;5.768;2023-02-13T03:40:50;6.50;84.00
53748;DHT22;39655;53.210;5.768;2023-02-13T03:44:12;6.50;84.10
53748;DHT22;39655;53.210;5.768;2023-02-13T03:46:43;6.50;84.10
53748;DHT22;39655;53.210;5.768;2023-02-13T03:49:17;6.60;83.40
53748;DHT22;39655;53.210;5.768;2023-02-13T03:55:03;6.60;83.50
53748;DHT22;39655;53.210;5.768;2023-02-13T03:57:52;6.60;83.80
53748;DHT22;39655;53.210;5.768;2023-02-13T04:00:43;6.60;84.00
53748;DHT22;39655;53.210;5.768;2023-02-13T04:03:19;6.60;84.10
53748;DHT22;39655;53.210;5.768;2023-02-13T04:05:51;6.60;84.10
53748;DHT22;39655;53.210;5.768;2023-02-13T04:08:18;6.50;84.00
53748;DHT22;39655;53.210;5.768;2023-02-13T04:10:54;6.60;84.10
53748;DHT22;39655;53.210;5.768;2023-02-13T04:13:26;6.50;84.20
53748;DHT22;39655;53.210;5.768;2023-02-13T04:16:08;6.50;84.10
53748;DHT22;39655;53.210;5.768;2023-02-13T04:18:35;6.50;84.20
53748;DHT22;39655;53.210;5.768;2023-02-13T04:21:06;6.50;84.20
53748;DHT22;39655;53.210;5.768;2023-02-13T04:23:32;6.50;84.30
53748;DHT22;39655;53.210;5.768;2023-02-13T04:26:00;6.60;84.50
53748;DHT22;39655;53.210;5.768;2023-02-13T04:28:27;6.50;84.70
53748;DHT22;39655;53.210;5.768;2023-02-13T04:30:52;6.50;84.40
53748;DHT22;39655;53.210;5.768;2023-02-13T04:33:18;6.50;84.10
53748;DHT22;39655;53.210;5.768;2023-02-13T04:35:43;6.50;84.00
53748;DHT22;39655;53.210;5.768;2023-02-13T04:38:09;6.50;83.90
53748;DHT22;39655;53.210;5.768;2023-02-13T04:40:35;6.50;84.00
53748;DHT22;39655;53.210;5.768;2023-02-13T04:43:00;6.60;83.70
53748;DHT22;39655;53.210;5.768;2023-02-13T04:45:26;6.60;83.90
53748;DHT22;39655;53.210;5.768;2023-02-13T04:47:53;6.60;83.90
53748;DHT22;39655;53.210;5.768;2023-02-13T04:50:19;6.50;84.20
53748;DHT22;39655;53.210;5.768;2023-02-13T04:52:45;6.50;84.50
53748;DHT22;39655;53.210;5.768;2023-02-13T04:55:10;6.50;85.10
53748;DHT22;39655;53.210;5.768;2023-02-13T04:57:36;6.50;85.10
53748;DHT22;39655;53.210;5.768;2023-02-13T05:00:03;6.40;85.10
53748;DHT22;39655;53.210;5.768;2023-02-13T05:02:30;6.50;85.10
53748;DHT22;39655;53.210;5.768;2023-02-13T05:04:55;6.40;85.10
53748;DHT22;39655;53.210;5.768;2023-02-13T05:07:21;6.40;85.20
53748;DHT22;39655;53.210;5.768;2023-02-13T05:09:47;6.40;85.20
53748;DHT22;39655;53.210;5.768;2023-02-13T05:12:12;6.50;85.20
53748;DHT22;39655;53.210;5.768;2023-02-13T05:14:38;6.50;85.20
53748;DHT22;39655;53.210;5.768;2023-02-13T05:17:04;6.50;85.30
53748;DHT22;39655;53.210;5.768;2023-02-13T05:19:30;6.50;85.50
53748;DHT22;39655;53.210;5.768;2023-02-13T05:21:55;6.50;85.60
53748;DHT22;39655;53.210;5.768;2023-02-13T05:24:39;6.50;85.60
53748;DHT22;39655;53.210;5.768;2023-02-13T05:27:05;6.50;85.60
53748;DHT22;39655;53.210;5.768;2023-02-13T05:29:31;6.50;85.70
53748;DHT22;39655;53.210;5.768;2023-02-13T05:31:57;6.50;85.70
53748;DHT22;39655;53.210;5.768;2023-02-13T05:34:25;6.50;85.70
53748;DHT22;39655;53.210;5.768;2023-02-13T05:36:52;6.50;85.80
53748;DHT22;39655;53.210;5.768;2023-02-13T05:39:18;6.50;85.90
53748;DHT22;39655;53.210;5.768;2023-02-13T05:41:47;6.50;86.10
53748;DHT22;39655;53.210;5.768;2023-02-13T05:44:13;6.40;86.10
53748;DHT22;39655;53.210;5.768;2023-02-13T05:46:40;6.50;86.10
53748;DHT22;39655;53.210;5.768;2023-02-13T05:49:07;6.50;86.10
53748;DHT22;39655;53.210;5.768;2023-02-13T05:51:33;6.40;86.00
53748;DHT22;39655;53.210;5.768;2023-02-13T05:53:59;6.50;86.00
53748;DHT22;39655;53.210;5.768;2023-02-13T05:56:25;6.50;86.00
53748;DHT22;39655;53.210;5.768;2023-02-13T05:58:51;6.40;86.00
53748;DHT22;39655;53.210;5.768;2023-02-13T06:01:18;6.40;86.00
53748;DHT22;39655;53.210;5.768;2023-02-13T06:03:43;6.40;86.00
53748;DHT22;39655;53.210;5.768;2023-02-13T06:06:09;6.50;86.00
53748;DHT22;39655;53.210;5.768;2023-02-13T06:08:34;6.50;86.00
53748;DHT22;39655;53.210;5.768;2023-02-13T06:11:00;6.50;86.00
53748;DHT22;39655;53.210;5.768;2023-02-13T06:13:26;6.50;86.10
53748;DHT22;39655;53.210;5.768;2023-02-13T06:15:52;6.50;86.20
53748;DHT22;39655;53.210;5.768;2023-02-13T06:18:17;6.40;86.20
53748;DHT22;39655;53.210;5.768;2023-02-13T06:20:43;6.50;86.30
53748;DHT22;39655;53.210;5.768;2023-02-13T06:23:12;6.50;86.40
53748;DHT22;39655;53.210;5.768;2023-02-13T06:25:38;6.50;86.40
53748;DHT22;39655;53.210;5.768;2023-02-13T06:28:04;6.50;86.40
53748;DHT22;39655;53.210;5.768;2023-02-13T06:30:30;6.50;86.40
53748;DHT22;39655;53.210;5.768;2023-02-13T06:32:56;6.50;86.40
53748;DHT22;39655;53.210;5.768;2023-02-13T06:35:22;6.50;86.50
53748;DHT22;39655;53.210;5.768;2023-02-13T06:37:47;6.50;86.40
53748;DHT22;39655;53.210;5.768;2023-02-13T06:40:15;6.50;86.40
53748;DHT22;39655;53.210;5.768;2023-02-13T06:42:41;6.50;86.20
53748;DHT22;39655;53.210;5.768;2023-02-13T06:45:08;6.50;86.30
53748;DHT22;39655;53.210;5.768;2023-02-13T06:47:34;6.50;86.30
53748;DHT22;39655;53.210;5.768;2023-02-13T06:49:59;6.50;86.30
53748;DHT22;39655;53.210;5.768;2023-02-13T06:52:25;6.50;86.40
53748;DHT22;39655;53.210;5.768;2023-02-13T06:54:51;6.50;86.40
53748;DHT22;39655;53.210;5.768;2023-02-13T06:57:16;6.50;86.40
53748;DHT22;39655;53.210;5.768;2023-02-13T06:59:42;6.60;86.40
53748;DHT22;39655;53.210;5.768;2023-02-13T07:02:11;6.60;86.40
53748;DHT22;39655;53.210;5.768;2023-02-13T07:04:37;6.50;86.30
53748;DHT22;39655;53.210;5.768;2023-02-13T07:07:03;6.50;86.30
53748;DHT22;39655;53.210;5.768;2023-02-13T07:15:15;6.60;86.40
53748;DHT22;39655;53.210;5.768;2023-02-13T07:17:41;6.50;86.50
53748;DHT22;39655;53.210;5.768;2023-02-13T07:20:08;6.50;86.50
53748;DHT22;39655;53.210;5.768;2023-02-13T07:22:34;6.60;86.50
53748;DHT22;39655;53.210;5.768;2023-02-13T07:25:00;6.50;86.50
53748;DHT22;39655;53.210;5.768;2023-02-13T07:27:26;6.60;86.50
53748;DHT22;39655;53.210;5.768;2023-02-13T07:29:54;6.60;86.60
53748;DHT22;39655;53.210;5.768;2023-02-13T07:32:21;6.60;86.50
53748;DHT22;39655;53.210;5.768;2023-02-13T07:34:47;6.60;86.50
53748;DHT22;39655;53.210;5.768;2023-02-13T07:37:12;6.60;86.50
53748;DHT22;39655;53.210;5.768;2023-02-13T07:39:38;6.60;86.60
53748;DHT22;39655;53.210;5.768;2023-02-13T07:42:04;6.60;86.60
53748;DHT22;39655;53.210;5.768;2023-02-13T07:44:30;6.60;86.60
53748;DHT22;39655;53.210;5.768;2023-02-13T07:46:56;6.60;86.60
53748;DHT22;39655;53.210;5.768;2023-02-13T07:49:22;6.60;86.50
53748;DHT22;39655;53.210;5.768;2023-02-13T07:51:47;6.70;86.50
53748;DHT22;39655;53.210;5.768;2023-02-13T07:54:13;6.60;86.40
53748;DHT22;39655;53.210;5.768;2023-02-13T07:56:39;6.70;86.40
53748;DHT22;39655;53.210;5.768;2023-02-13T07:59:04;6.70;86.30
53748;DHT22;39655;53.210;5.768;2023-02-13T08:01:30;6.70;86.20
53748;DHT22;39655;53.210;5.768;2023-02-13T08:03:55;6.70;86.10
53748;DHT22;39655;53.210;5.768;2023-02-13T08:06:21;6.70;85.90
53748;DHT22;39655;53.210;5.768;2023-02-13T08:08:47;6.70;85.80
53748;DHT22;39655;53.210;5.768;2023-02-13T08:11:24;6.70;85.80
53748;DHT22;39655;53.210;5.768;2023-02-13T08:14:12;6.70;85.80
53748;DHT22;39655;53.210;5.768;2023-02-13T08:16:37;6.80;85.80
53748;DHT22;39655;53.210;5.768;2023-02-13T08:19:03;6.70;85.80
53748;DHT22;39655;53.210;5.768;2023-02-13T08:21:29;6.80;85.70
53748;DHT22;39655;53.210;5.768;2023-02-13T08:23:55;6.80;85.70
53748;DHT22;39655;53.210;5.768;2023-02-13T08:26:21;6.80;85.70
53748;DHT22;39655;53.210;5.768;2023-02-13T08:28:47;6.80;85.60
53748;DHT22;39655;53.210;5.768;2023-02-13T08:31:12;6.90;85.60
53748;DHT22;39655;53.210;5.768;2023-02-13T08:33:38;6.90;85.60
53748;DHT22;39655;53.210;5.768;2023-02-13T08:36:07;6.90;85.50
53748;DHT22;39655;53.210;5.768;2023-02-13T08:38:33;6.90;85.50
53748;DHT22;39655;53.210;5.768;2023-02-13T08:40:59;6.90;85.30
53748;DHT22;39655;53.210;5.768;2023-02-13T08:43:24;6.90;85.20
53748;DHT22;39655;53.210;5.768;2023-02-13T08:45:50;6.90;85.20
53748;DHT22;39655;53.210;5.768;2023-02-13T08:48:15;6.90;85.20
53748;DHT22;39655;53.210;5.768;2023-02-13T08:50:41;6.90;85.20
53748;DHT22;39655;53.210;5.768;2023-02-13T08:53:10;7.00;85.20
53748;DHT22;39655;53.210;5.768;2023-02-13T08:55:35;7.00;85.30
53748;DHT22;39655;53.210;5.768;2023-02-13T08:58:02;7.00;85.10
53748;DHT22;39655;53.210;5.768;2023-02-13T09:00:28;7.00;84.90
53748;DHT22;39655;53.210;5.768;2023-02-13T09:02:54;7.10;84.80
53748;DHT22;39655;53.210;5.768;2023-02-13T09:05:20;7.10;84.70
53748;DHT22;39655;53.210;5.768;2023-02-13T09:07:45;7.10;84.70
53748;DHT22;39655;53.210;5.768;2023-02-13T09:10:11;7.10;84.70
53748;DHT22;39655;53.210;5.768;2023-02-13T09:12:37;7.10;84.70
53748;DHT22;39655;53.210;5.768;2023-02-13T09:15:03;7.20;84.70
53748;DHT22;39655;53.210;5.768;2023-02-13T09:17:29;7.20;84.60
53748;DHT22;39655;53.210;5.768;2023-02-13T09:19:55;7.20;84.60
53748;DHT22;39655;53.210;5.768;2023-02-13T09:22:20;7.20;84.60
53748;DHT22;39655;53.210;5.768;2023-02-13T09:24:46;7.20;84.60
53748;DHT22;39655;53.210;5.768;2023-02-13T09:27:11;7.30;84.70
53748;DHT22;39655;53.210;5.768;2023-02-13T09:29:37;7.30;84.70
53748;DHT22;39655;53.210;5.768;2023-02-13T09:32:04;7.30;84.50
53748;DHT22;39655;53.210;5.768;2023-02-13T09:34:30;7.30;84.50
53748;DHT22;39655;53.210;5.768;2023-02-13T09:36:55;7.30;84.60
53748;DHT22;39655;53.210;5.768;2023-02-13T09:39:21;7.30;84.60
53748;DHT22;39655;53.210;5.768;2023-02-13T09:41:49;7.40;84.70
53748;DHT22;39655;53.210;5.768;2023-02-13T09:44:27;7.40;84.70
53748;DHT22;39655;53.210;5.768;2023-02-13T09:47:29;7.40;84.80
53748;DHT22;39655;53.210;5.768;2023-02-13T09:49:59;7.50;85.00
53748;DHT22;39655;53.210;5.768;2023-02-13T09:52:31;7.40;85.00
53748;DHT22;39655;53.210;5.768;2023-02-13T09:54:56;7.50;85.10
53748;DHT22;39655;53.210;5.768;2023-02-13T09:57:31;7.50;85.10
53748;DHT22;39655;53.210;5.768;2023-02-13T10:16:22;7.60;85.40
53748;DHT22;39655;53.210;5.768;2023-02-13T10:18:58;7.60;85.40
53748;DHT22;39655;53.210;5.768;2023-02-13T10:21:29;7.70;85.40
53748;DHT22;39655;53.210;5.768;2023-02-13T10:24:03;7.70;85.50
53748;DHT22;39655;53.210;5.768;2023-02-13T10:26:31;7.70;85.40
53748;DHT22;39655;53.210;5.768;2023-02-13T10:32:18;7.80;85.30
53748;DHT22;39655;53.210;5.768;2023-02-13T10:34:46;7.80;85.30
53748;DHT22;39655;53.210;5.768;2023-02-13T10:37:20;7.80;85.40
53748;DHT22;39655;53.210;5.768;2023-02-13T10:39:48;7.90;85.30
53748;DHT22;39655;53.210;5.768;2023-02-13T10:42:36;7.90;85.00
53748;DHT22;39655;53.210;5.768;2023-02-13T10:45:26;7.90;84.80
53748;DHT22;39655;53.210;5.768;2023-02-13T10:50:52;7.90;84.50
53748;DHT22;39655;53.210;5.768;2023-02-13T10:53:58;7.90;84.50
53748;DHT22;39655;53.210;5.768;2023-02-13T11:02:06;8.00;84.10
53748;DHT22;39655;53.210;5.768;2023-02-13T11:04:34;8.10;83.90
53748;DHT22;39655;53.210;5.768;2023-02-13T11:07:02;8.10;84.00
53748;DHT22;39655;53.210;5.768;2023-02-13T11:09:32;8.20;83.70
53748;DHT22;39655;53.210;5.768;2023-02-13T11:12:31;8.20;83.50
53748;DHT22;39655;53.210;5.768;2023-02-13T11:17:25;8.20;83.50
53748;DHT22;39655;53.210;5.768;2023-02-13T11:19:57;8.20;83.40
53748;DHT22;39655;53.210;5.768;2023-02-13T11:22:31;8.30;83.50
53748;DHT22;39655;53.210;5.768;2023-02-13T11:25:06;8.30;83.50
53748;DHT22;39655;53.210;5.768;2023-02-13T11:27:38;8.40;83.40
53748;DHT22;39655;53.210;5.768;2023-02-13T11:33:06;8.50;83.20
53748;DHT22;39655;53.210;5.768;2023-02-13T11:35:34;8.60;83.30
53748;DHT22;39655;53.210;5.768;2023-02-13T11:38:23;8.60;82.90
53748;DHT22;39655;53.210;5.768;2023-02-13T11:40:52;8.70;82.90
53748;DHT22;39655;53.210;5.768;2023-02-13T11:43:35;8.70;82.70
53748;DHT22;39655;53.210;5.768;2023-02-13T11:46:16;8.80;82.80
53748;DHT22;39655;53.210;5.768;2023-02-13T11:48:42;8.90;83.00
53748;DHT22;39655;53.210;5.768;2023-02-13T11:51:08;8.90;82.50
53748;DHT22;39655;53.210;5.768;2023-02-13T11:53:38;8.90;82.50
53748;DHT22;39655;53.210;5.768;2023-02-13T11:56:12;9.00;82.40
53748;DHT22;39655;53.210;5.768;2023-02-13T11:58:39;9.00;82.00
53748;DHT22;39655;53.210;5.768;2023-02-13T12:04:04;9.00;81.90
53748;DHT22;39655;53.210;5.768;2023-02-13T12:06:31;9.10;82.00
53748;DHT22;39655;53.210;5.768;2023-02-13T12:09:13;9.10;82.00
53748;DHT22;39655;53.210;5.768;2023-02-13T12:11:44;9.10;82.00
53748;DHT22;39655;53.210;5.768;2023-02-13T12:14:15;9.10;82.00
53748;DHT22;39655;53.210;5.768;2023-02-13T12:19:43;9.20;81.90
53748;DHT22;39655;53.210;5.768;2023-02-13T12:25:24;9.30;81.90
53748;DHT22;39655;53.210;5.768;2023-02-13T12:28:08;9.30;81.70
53748;DHT22;39655;53.210;5.768;2023-02-13T12:47:29;9.50;81.20
53748;DHT22;39655;53.210;5.768;2023-02-13T12:50:07;9.50;81.30
53748;DHT22;39655;53.210;5.768;2023-02-13T13:00:48;9.60;80.80
53748;DHT22;39655;53.210;5.768;2023-02-13T13:14:55;9.90;80.50
53748;DHT22;39655;53.210;5.768;2023-02-13T13:22:55;9.90;80.60
53748;DHT22;39655;53.210;5.768;2023-02-13T13:27:56;10.00;81.00
53748;DHT22;39655;53.210;5.768;2023-02-13T13:30:25;10.10;81.10
53748;DHT22;39655;53.210;5.768;2023-02-13T13:33:17;10.10;81.00
53748;DHT22;39655;53.210;5.768;2023-02-13T13:36:08;10.10;80.60
53748;DHT22;39655;53.210;5.768;2023-02-13T13:38:58;10.20;80.70
53748;DHT22;39655;53.210;5.768;2023-02-13T13:41:46;10.20;80.90
53748;DHT22;39655;53.210;5.768;2023-02-13T13:46:55;10.20;80.60
53748;DHT22;39655;53.210;5.768;2023-02-13T13:49:31;10.20;81.00
53748;DHT22;39655;53.210;5.768;2023-02-13T13:54:43;10.30;80.70
53748;DHT22;39655;53.210;5.768;2023-02-13T13:57:11;10.30;80.90
53748;DHT22;39655;53.210;5.768;2023-02-13T14:05:16;10.40;81.10
53748;DHT22;39655;53.210;5.768;2023-02-13T14:07:42;10.40;81.00
53748;DHT22;39655;53.210;5.768;2023-02-13T14:18:19;10.30;81.00
53748;DHT22;39655;53.210;5.768;2023-02-13T14:20:53;10.30;81.10
53748;DHT22;39655;53.210;5.768;2023-02-13T14:34:03;10.30;81.10
53748;DHT22;39655;53.210;5.768;2023-02-13T14:43:08;10.20;81.00
53748;DHT22;39655;53.210;5.768;2023-02-13T14:45:32;10.20;80.80
53748;DHT22;39655;53.210;5.768;2023-02-13T14:48:05;10.20;81.00
53748;DHT22;39655;53.210;5.768;2023-02-13T14:50:45;10.20;81.00
53748;DHT22;39655;53.210;5.768;2023-02-13T14:53:25;10.10;81.00
53748;DHT22;39655;53.210;5.768;2023-02-13T14:56:06;10.10;81.00
53748;DHT22;39655;53.210;5.768;2023-02-13T14:58:35;10.10;81.20
53748;DHT22;39655;53.210;5.768;2023-02-13T15:01:24;10.10;81.30
53748;DHT22;39655;53.210;5.768;2023-02-13T15:03:56;10.10;81.40
53748;DHT22;39655;53.210;5.768;2023-02-13T15:06:47;10.10;81.30
53748;DHT22;39655;53.210;5.768;2023-02-13T15:09:27;10.10;81.40
53748;DHT22;39655;53.210;5.768;2023-02-13T15:11:57;10.10;81.40
53748;DHT22;39655;53.210;5.768;2023-02-13T15:14:32;10.10;81.00
53748;DHT22;39655;53.210;5.768;2023-02-13T15:17:14;10.10;81.10
53748;DHT22;39655;53.210;5.768;2023-02-13T15:19:46;10.00;81.10
53748;DHT22;39655;53.210;5.768;2023-02-13T15:22:34;10.00;81.30
53748;DHT22;39655;53.210;5.768;2023-02-13T15:25:01;10.00;81.40
53748;DHT22;39655;53.210;5.768;2023-02-13T15:27:30;9.90;81.40
53748;DHT22;39655;53.210;5.768;2023-02-13T15:30:03;9.90;81.30
53748;DHT22;39655;53.210;5.768;2023-02-13T15:32:35;9.90;81.20
53748;DHT22;39655;53.210;5.768;2023-02-13T15:35:22;9.90;81.40
53748;DHT22;39655;53.210;5.768;2023-02-13T15:37:48;9.90;80.90
53748;DHT22;39655;53.210;5.768;2023-02-13T15:40:31;9.90;80.90
53748;DHT22;39655;53.210;5.768;2023-02-13T15:42:58;9.90;80.90
53748;DHT22;39655;53.210;5.768;2023-02-13T15:45:26;9.80;80.80
53748;DHT22;39655;53.210;5.768;2023-02-13T15:47:53;9.80;80.80
53748;DHT22;39655;53.210;5.768;2023-02-13T15:50:35;9.80;80.80
53748;DHT22;39655;53.210;5.768;2023-02-13T15:53:03;9.70;80.50
53748;DHT22;39655;53.210;5.768;2023-02-13T15:55:32;9.70;80.60
53748;DHT22;39655;53.210;5.768;2023-02-13T15:57:59;9.70;80.90
53748;DHT22;39655;53.210;5.768;2023-02-13T16:00:29;9.70;81.10
53748;DHT22;39655;53.210;5.768;2023-02-13T16:02:57;9.70;81.10
53748;DHT22;39655;53.210;5.768;2023-02-13T16:05:25;9.70;81.10
53748;DHT22;39655;53.210;5.768;2023-02-13T16:07:53;9.60;80.80
53748;DHT22;39655;53.210;5.768;2023-02-13T16:10:35;9.60;80.70
53748;DHT22;39655;53.210;5.768;2023-02-13T16:13:03;9.50;80.70
53748;DHT22;39655;53.210;5.768;2023-02-13T16:15:31;9.50;81.10
53748;DHT22;39655;53.210;5.768;2023-02-13T16:17:58;9.50;81.40
53748;DHT22;39655;53.210;5.768;2023-02-13T16:20:27;9.50;81.60
53748;DHT22;39655;53.210;5.768;2023-02-13T16:23:06;9.50;81.90
53748;DHT22;39655;53.210;5.768;2023-02-13T16:25:39;9.50;81.90
53748;DHT22;39655;53.210;5.768;2023-02-13T16:30:46;9.40;82.00
53748;DHT22;39655;53.210;5.768;2023-02-13T16:35:52;9.40;82.20
53748;DHT22;39655;53.210;5.768;2023-02-13T16:38:40;9.40;82.20
53748;DHT22;39655;53.210;5.768;2023-02-13T16:41:30;9.40;82.00
53748;DHT22;39655;53.210;5.768;2023-02-13T16:43:58;9.30;81.80
53748;DHT22;39655;53.210;5.768;2023-02-13T16:56:46;9.10;82.20
53748;DHT22;39655;53.210;5.768;2023-02-13T17:01:42;9.00;82.30
53748;DHT22;39655;53.210;5.768;2023-02-13T17:04:23;8.80;82.40
53748;DHT22;39655;53.210;5.768;2023-02-13T17:06:55;8.70;82.50
53748;DHT22;39655;53.210;5.768;2023-02-13T17:09:21;8.60;82.80
53748;DHT22;39655;53.210;5.768;2023-02-13T17:11:52;8.50;83.00
53748;DHT22;39655;53.210;5.768;2023-02-13T17:14:18;8.40;83.30
53748;DHT22;39655;53.210;5.768;2023-02-13T17:16:45;8.30;83.40
53748;DHT22;39655;53.210;5.768;2023-02-13T17:19:11;8.30;83.60
53748;DHT22;39655;53.210;5.768;2023-02-13T17:21:37;8.20;83.90
53748;DHT22;39655;53.210;5.768;2023-02-13T17:24:04;8.20;84.10
53748;DHT22;39655;53.210;5.768;2023-02-13T17:26:30;8.10;84.30
53748;DHT22;39655;53.210;5.768;2023-02-13T17:28:56;8.00;84.40
53748;DHT22;39655;53.210;5.768;2023-02-13T17:31:22;8.00;84.50
53748;DHT22;39655;53.210;5.768;2023-02-13T17:33:48;7.90;84.70
53748;DHT22;39655;53.210;5.768;2023-02-13T17:36:13;7.90;84.80
53748;DHT22;39655;53.210;5.768;2023-02-13T17:38:41;7.80;84.90
53748;DHT22;39655;53.210;5.768;2023-02-13T17:41:14;7.70;85.00
53748;DHT22;39655;53.210;5.768;2023-02-13T17:43:40;7.60;85.10
53748;DHT22;39655;53.210;5.768;2023-02-13T17:46:06;7.60;85.20
53748;DHT22;39655;53.210;5.768;2023-02-13T17:48:31;7.60;85.30
53748;DHT22;39655;53.210;5.768;2023-02-13T17:50:57;7.50;85.50
53748;DHT22;39655;53.210;5.768;2023-02-13T17:53:25;7.50;85.60
53748;DHT22;39655;53.210;5.768;2023-02-13T17:55:54;7.40;85.70
53748;DHT22;39655;53.210;5.768;2023-02-13T17:58:23;7.30;85.60
53748;DHT22;39655;53.210;5.768;2023-02-13T18:00:51;7.20;85.70
53748;DHT22;39655;53.210;5.768;2023-02-13T18:03:17;7.20;85.80
53748;DHT22;39655;53.210;5.768;2023-02-13T18:05:46;7.20;85.80
53748;DHT22;39655;53.210;5.768;2023-02-13T18:08:12;7.10;86.00
53748;DHT22;39655;53.210;5.768;2023-02-13T18:10:38;7.10;86.10
53748;DHT22;39655;53.210;5.768;2023-02-13T18:13:04;7.00;86.20
53748;DHT22;39655;53.210;5.768;2023-02-13T18:15:32;7.00;86.40
53748;DHT22;39655;53.210;5.768;2023-02-13T18:17:58;6.90;86.50
53748;DHT22;39655;53.210;5.768;2023-02-13T18:20:24;6.90;86.50
53748;DHT22;39655;53.210;5.768;2023-02-13T18:22:50;6.90;86.50
53748;DHT22;39655;53.210;5.768;2023-02-13T18:25:18;6.80;86.60
53748;DHT22;39655;53.210;5.768;2023-02-13T18:27:44;6.70;86.60
53748;DHT22;39655;53.210;5.768;2023-02-13T18:30:12;6.70;86.70
53748;DHT22;39655;53.210;5.768;2023-02-13T18:32:38;6.60;86.90
53748;DHT22;39655;53.210;5.768;2023-02-13T18:35:04;6.60;87.00
53748;DHT22;39655;53.210;5.768;2023-02-13T18:37:32;6.60;87.10
53748;DHT22;39655;53.210;5.768;2023-02-13T18:39:58;6.50;87.40
53748;DHT22;39655;53.210;5.768;2023-02-13T18:42:24;6.50;87.60
53748;DHT22;39655;53.210;5.768;2023-02-13T18:44:50;6.50;87.90
53748;DHT22;39655;53.210;5.768;2023-02-13T18:47:16;6.50;88.20
53748;DHT22;39655;53.210;5.768;2023-02-13T18:49:42;6.50;88.30
53748;DHT22;39655;53.210;5.768;2023-02-13T18:52:09;6.40;88.30
53748;DHT22;39655;53.210;5.768;2023-02-13T18:54:35;6.40;88.40
53748;DHT22;39655;53.210;5.768;2023-02-13T18:57:01;6.40;88.40
53748;DHT22;39655;53.210;5.768;2023-02-13T18:59:27;6.40;88.60
53748;DHT22;39655;53.210;5.768;2023-02-13T19:01:52;6.30;88.60
53748;DHT22;39655;53.210;5.768;2023-02-13T19:04:21;6.30;88.70
53748;DHT22;39655;53.210;5.768;2023-02-13T19:06:47;6.20;88.90